createdAt,value
2019-03-23T00:01:41.544Z,65.75
2019-03-23T00:04:13.025Z,65.80
2019-03-23T00:06:44.250Z,65.73
2019-03-23T00:09:15.608Z,66.08
2019-03-23T00:11:46.950Z,66.17
2019-03-23T00:14:18.254Z,66.40
2019-03-23T00:16:49.514Z,66.57
2019-03-23T00:19:20.808Z,66.43
2019-03-23T00:21:53.327Z,66.36
2019-03-23T00:24:24.618Z,66.76
2019-03-23T00:26:55.973Z,67.23
2019-03-23T00:29:27.251Z,67.53
2019-03-23T00:31:58.597Z,67.87
2019-03-23T00:34:29.819Z,67.80
2019-03-23T00:37:01.230Z,67.94
2019-03-23T00:39:32.485Z,68.09
2019-03-23T00:42:03.771Z,68.05
2019-03-23T00:44:35.006Z,68.58
2019-03-23T00:47:06.351Z,68.04
2019-03-23T00:49:37.582Z,67.75
2019-03-23T00:52:08.929Z,67.75
2019-03-23T00:54:40.161Z,67.73
2019-03-23T00:57:11.503Z,68.06
2019-03-23T00:59:42.805Z,68.35
2019-03-23T01:02:14.251Z,68.57
2019-03-23T01:04:45.588Z,69.16
2019-03-23T01:07:29.873Z,68.93
2019-03-23T01:10:01.170Z,69.21
2019-03-23T01:12:32.581Z,69.70
2019-03-23T01:15:05.852Z,70.04
2019-03-23T01:17:37.289Z,69.75
2019-03-23T01:20:13.458Z,69.79
2019-03-23T01:22:44.731Z,70.40
2019-03-23T01:25:16.034Z,70.92
2019-03-23T01:27:47.302Z,70.89
2019-03-23T01:30:19.596Z,71.01
2019-03-23T01:32:50.964Z,71.43
2019-03-23T01:35:22.275Z,71.74
2019-03-23T01:37:53.518Z,71.87
2019-03-23T01:40:24.883Z,71.91
2019-03-23T01:42:57.871Z,71.88
2019-03-23T01:45:29.167Z,71.90
2019-03-23T01:48:00.439Z,72.22
2019-03-23T01:50:31.672Z,72.40
2019-03-23T01:53:02.947Z,72.26
2019-03-23T01:55:34.176Z,71.91
2019-03-23T01:58:05.520Z,71.89
2019-03-23T02:00:38.039Z,72.03
2019-03-23T02:03:09.523Z,72.04
2019-03-23T02:05:40.824Z,72.05
2019-03-23T02:08:12.199Z,71.87
2019-03-23T02:10:43.432Z,72.07
2019-03-23T02:13:14.730Z,72.42
2019-03-23T02:15:46.053Z,72.61
2019-03-23T02:18:17.381Z,72.27
2019-03-23T02:20:48.810Z,72.03
2019-03-23T02:23:21.071Z,72.29
2019-03-23T02:25:52.414Z,72.47
2019-03-23T02:28:23.734Z,72.53
2019-03-23T02:30:55.106Z,72.97
2019-03-23T02:33:26.338Z,73.55
2019-03-23T02:35:57.691Z,73.77
2019-03-23T02:38:30.007Z,73.90
2019-03-23T02:41:01.249Z,73.94
2019-03-23T02:43:32.764Z,74.25
2019-03-23T02:46:04.005Z,74.05
2019-03-23T02:48:35.285Z,73.82
2019-03-23T02:51:06.610Z,73.68
2019-03-23T02:53:37.960Z,73.45
2019-03-23T02:56:09.202Z,73.71
2019-03-23T02:58:41.688Z,73.85
2019-03-23T03:01:12.906Z,73.97
2019-03-23T03:03:44.259Z,73.62
2019-03-23T03:06:15.568Z,73.02
2019-03-23T03:08:46.948Z,73.35
2019-03-23T03:11:18.256Z,73.25
2019-03-23T03:13:49.545Z,73.04
2019-03-23T03:16:20.922Z,72.52
2019-03-23T03:18:52.257Z,71.94
2019-03-23T03:21:23.735Z,71.91
2019-03-23T03:23:55.092Z,72.14
2019-03-23T03:26:26.405Z,72.41
2019-03-23T03:28:57.818Z,73.26
2019-03-23T03:31:29.177Z,74.22
2019-03-23T03:34:00.590Z,74.63
2019-03-23T03:36:33.020Z,74.33
2019-03-23T03:39:05.993Z,74.66
2019-03-23T03:41:37.670Z,74.77
2019-03-23T03:44:09.089Z,73.67
2019-03-23T03:46:40.325Z,73.91
2019-03-23T03:49:12.906Z,74.64
2019-03-23T03:51:44.409Z,74.17
2019-03-23T03:54:15.698Z,73.69
2019-03-23T03:56:46.967Z,74.13
2019-03-23T03:59:18.412Z,74.04
2019-03-23T04:01:55.786Z,73.52
2019-03-23T04:04:27.194Z,73.52
2019-03-23T04:06:58.509Z,74.62
2019-03-23T04:09:29.797Z,75.18
2019-03-23T04:12:01.232Z,76.70
2019-03-23T04:14:32.748Z,76.97
2019-03-23T04:17:06.641Z,76.77
2019-03-23T04:19:38.012Z,76.63
2019-03-23T04:22:09.316Z,76.64
2019-03-23T04:24:40.616Z,77.10
2019-03-23T04:27:11.884Z,77.32
2019-03-23T04:29:43.154Z,77.38
2019-03-23T04:32:14.437Z,78.05
2019-03-23T04:34:45.668Z,78.47
2019-03-23T04:37:18.089Z,77.63
2019-03-23T04:39:49.325Z,77.57
2019-03-23T04:42:20.700Z,77.34
2019-03-23T04:44:52.044Z,77.36
2019-03-23T04:47:23.360Z,77.21
2019-03-23T04:49:54.632Z,77.01
2019-03-23T04:52:26.041Z,76.07
2019-03-23T04:54:57.323Z,77.02
2019-03-23T04:57:28.657Z,77.62
2019-03-23T05:00:01.118Z,76.43
2019-03-23T05:02:32.564Z,76.28
2019-03-23T05:05:04.874Z,76.78
2019-03-23T05:07:36.185Z,77.01
2019-03-23T05:10:10.152Z,77.00
2019-03-23T05:12:41.454Z,76.45
2019-03-23T05:15:14.824Z,77.19
2019-03-23T05:17:46.058Z,77.65
2019-03-23T05:20:29.593Z,77.85
2019-03-23T05:23:00.968Z,77.01
2019-03-23T05:25:34.363Z,77.68
2019-03-23T05:28:05.746Z,78.66
2019-03-23T05:30:37.093Z,78.30
2019-03-23T05:33:08.352Z,78.25
2019-03-23T05:35:39.685Z,78.84
2019-03-23T05:38:11.107Z,78.46
2019-03-23T05:40:42.585Z,78.80
2019-03-23T05:43:13.822Z,78.65
2019-03-23T05:45:45.128Z,78.15
2019-03-23T05:48:16.377Z,77.99
2019-03-23T05:50:47.729Z,78.28
2019-03-23T05:53:18.966Z,78.70
2019-03-23T05:55:50.341Z,78.24
2019-03-23T05:58:21.596Z,78.34
2019-03-23T06:00:53.012Z,77.79
2019-03-23T06:03:24.324Z,78.18
2019-03-23T06:05:57.665Z,77.72
2019-03-23T06:08:28.901Z,78.50
2019-03-23T06:11:00.226Z,78.71
2019-03-23T06:13:31.459Z,78.96
2019-03-23T06:16:03.877Z,79.27
2019-03-23T06:18:35.115Z,79.47
2019-03-23T06:21:06.488Z,79.54
2019-03-23T06:23:37.724Z,79.65
2019-03-23T06:26:09.802Z,79.35
2019-03-23T06:28:41.080Z,79.51
2019-03-23T06:31:12.459Z,79.52
2019-03-23T06:33:44.902Z,79.62
2019-03-23T06:36:16.225Z,79.58
2019-03-23T06:38:47.604Z,79.52
2019-03-23T06:41:19.014Z,79.23
2019-03-23T06:43:50.315Z,79.16
2019-03-23T06:46:21.663Z,78.78
2019-03-23T06:48:52.901Z,78.68
2019-03-23T06:51:24.203Z,78.55
2019-03-23T06:53:55.557Z,78.92
2019-03-23T06:56:26.859Z,79.07
2019-03-23T06:58:58.222Z,79.06
2019-03-23T07:01:29.688Z,79.51
2019-03-23T07:04:00.968Z,79.95
2019-03-23T07:06:32.272Z,79.85
2019-03-23T07:09:15.784Z,79.55
2019-03-23T07:11:40.361Z,79.87
2019-03-23T07:14:11.576Z,79.88
2019-03-23T07:16:42.956Z,79.56
2019-03-23T07:19:14.199Z,78.57
2019-03-23T07:21:45.537Z,77.83
2019-03-23T07:24:16.863Z,77.92
2019-03-23T07:26:51.058Z,77.64
2019-03-23T07:29:22.368Z,77.93
2019-03-23T07:31:53.709Z,78.40
2019-03-23T07:34:25.061Z,78.72
2019-03-23T07:36:56.301Z,78.66
2019-03-23T07:39:49.075Z,77.48
2019-03-23T07:42:20.310Z,77.08
2019-03-23T07:44:51.555Z,76.59
2019-03-23T07:47:22.858Z,76.53
2019-03-23T07:49:54.160Z,76.36
2019-03-23T07:52:25.447Z,76.30
2019-03-23T07:54:57.943Z,75.72
2019-03-23T07:57:29.251Z,75.41
2019-03-23T08:00:00.518Z,75.80
2019-03-23T08:02:31.829Z,75.58
2019-03-23T08:05:03.263Z,74.04
2019-03-23T08:07:34.567Z,74.15
2019-03-23T08:10:08.333Z,73.16
2019-03-23T08:12:39.578Z,73.71
2019-03-23T08:15:11.253Z,73.72
2019-03-23T08:17:42.852Z,73.57
2019-03-23T08:20:14.160Z,72.64
2019-03-23T08:22:45.616Z,71.82
2019-03-23T08:25:16.989Z,71.41
2019-03-23T08:27:49.751Z,71.33
2019-03-23T08:30:21.137Z,71.52
2019-03-23T08:32:52.591Z,71.47
2019-03-23T08:35:23.992Z,72.12
2019-03-23T08:37:56.414Z,71.46
2019-03-23T08:40:27.775Z,70.71
2019-03-23T08:42:59.207Z,69.41
2019-03-23T08:45:30.580Z,68.52
2019-03-23T08:48:02.439Z,69.25
2019-03-23T08:50:33.929Z,66.96
2019-03-23T08:53:05.479Z,67.92
2019-03-23T08:55:36.985Z,66.40
2019-03-23T08:58:08.233Z,65.42
2019-03-23T09:00:39.671Z,66.36
2019-03-23T09:03:11.024Z,65.79
2019-03-23T09:05:42.374Z,65.70
2019-03-23T09:08:13.826Z,65.10
2019-03-23T09:10:45.244Z,63.43
2019-03-23T09:13:16.506Z,62.71
2019-03-23T09:15:47.950Z,62.88
2019-03-23T09:18:20.961Z,62.49
2019-03-23T09:20:52.358Z,60.76
2019-03-23T09:23:23.914Z,60.50
2019-03-23T09:25:55.291Z,60.56
2019-03-23T09:28:26.775Z,60.28
2019-03-23T09:30:58.029Z,59.95
2019-03-23T09:33:29.481Z,57.58
2019-03-23T09:36:02.059Z,57.81
2019-03-23T09:38:33.475Z,57.39
2019-03-23T09:41:04.862Z,55.80
2019-03-23T09:43:36.309Z,56.42
2019-03-23T09:46:09.366Z,55.97
2019-03-23T09:48:40.710Z,55.57
2019-03-23T09:51:12.076Z,53.77
2019-03-23T09:53:43.328Z,53.88
2019-03-23T09:56:14.707Z,53.08
2019-03-23T09:58:46.189Z,55.66
2019-03-23T10:01:18.831Z,53.27
2019-03-23T10:03:50.300Z,51.76
2019-03-23T10:06:22.830Z,53.05
2019-03-23T10:09:01.210Z,52.69
2019-03-23T10:11:34.004Z,52.11
2019-03-23T10:14:05.449Z,50.70
2019-03-23T10:16:36.707Z,52.17
2019-03-23T10:19:08.075Z,50.52
2019-03-23T10:21:40.955Z,49.43
2019-03-23T10:24:13.522Z,52.25
2019-03-23T10:26:44.850Z,49.29
2019-03-23T10:29:17.152Z,48.47
2019-03-23T10:31:48.522Z,48.12
2019-03-23T10:34:19.808Z,47.78
2019-03-23T10:36:51.133Z,47.07
2019-03-23T10:39:22.760Z,47.76
2019-03-23T10:41:54.018Z,47.46
2019-03-23T10:44:25.327Z,49.55
2019-03-23T10:46:56.674Z,48.65
2019-03-23T10:49:27.995Z,46.78
2019-03-23T10:51:59.318Z,47.13
2019-03-23T10:54:30.683Z,46.16
2019-03-23T10:57:02.195Z,45.83
2019-03-23T10:59:33.455Z,46.45
2019-03-23T11:02:04.949Z,49.83
2019-03-23T11:04:36.267Z,45.34
2019-03-23T11:07:07.636Z,44.67
2019-03-23T11:09:38.945Z,43.24
2019-03-23T11:12:10.244Z,44.70
2019-03-23T11:14:41.557Z,44.83
2019-03-23T11:17:12.882Z,43.42
2019-03-23T11:19:44.237Z,44.45
2019-03-23T11:22:15.520Z,43.55
2019-03-23T11:24:46.850Z,42.15
2019-03-23T11:27:18.110Z,44.02
2019-03-23T11:29:49.415Z,45.32
2019-03-23T11:32:20.737Z,42.06
2019-03-23T11:34:52.533Z,43.00
2019-03-23T11:37:23.987Z,40.94
2019-03-23T11:39:57.412Z,40.52
2019-03-23T11:42:30.187Z,43.18
2019-03-23T11:45:01.493Z,43.54
2019-03-23T11:47:50.699Z,41.46
2019-03-23T11:50:22.328Z,41.56
2019-03-23T11:52:53.719Z,41.73
2019-03-23T11:55:31.359Z,41.67
2019-03-23T11:58:02.842Z,40.61
2019-03-23T12:00:36.163Z,39.83
2019-03-23T12:03:07.657Z,40.13
2019-03-23T12:05:38.934Z,40.36
2019-03-23T12:08:10.728Z,39.17
2019-03-23T12:10:43.085Z,39.71
2019-03-23T12:13:21.657Z,39.53
2019-03-23T12:15:52.979Z,41.57
2019-03-23T12:18:24.703Z,37.66
2019-03-23T12:20:59.904Z,37.81
2019-03-23T12:23:31.347Z,37.17
2019-03-23T12:26:02.925Z,37.61
2019-03-23T12:28:36.862Z,39.06
2019-03-23T12:31:10.785Z,38.00
2019-03-23T12:33:43.878Z,37.55
2019-03-23T12:36:16.679Z,41.02
2019-03-23T12:38:48.185Z,39.51
2019-03-23T12:41:23.300Z,38.04
2019-03-23T12:43:54.646Z,37.14
2019-03-23T12:46:27.974Z,37.44
2019-03-23T12:48:59.503Z,35.93
2019-03-23T12:51:30.966Z,36.37
2019-03-23T12:54:02.439Z,37.65
2019-03-23T12:56:35.420Z,37.43
2019-03-23T12:59:06.752Z,35.84
2019-03-23T13:04:08.733Z,35.02
2019-03-23T13:06:40.203Z,34.72
2019-03-23T13:09:12.683Z,34.24
2019-03-23T13:11:57.254Z,35.64
2019-03-23T13:14:28.555Z,35.68
2019-03-23T13:16:59.804Z,34.13
2019-03-23T13:19:31.287Z,33.91
2019-03-23T13:22:02.682Z,34.25
2019-03-23T13:24:34.139Z,36.02
2019-03-23T13:27:08.449Z,32.95
2019-03-23T13:29:42.798Z,34.12
2019-03-23T13:32:18.679Z,32.18
2019-03-23T13:34:50.458Z,34.21
2019-03-23T13:37:21.877Z,33.30
2019-03-23T13:39:53.309Z,32.69
2019-03-23T13:42:24.826Z,32.52
2019-03-23T13:44:56.268Z,32.87
2019-03-23T13:47:27.560Z,32.66
2019-03-23T13:49:59.015Z,35.23
2019-03-23T13:52:30.278Z,34.44
2019-03-23T13:55:01.573Z,32.70
2019-03-23T13:57:32.965Z,34.16
2019-03-23T14:00:07.307Z,33.29
2019-03-23T14:02:41.778Z,32.81
2019-03-23T14:05:16.253Z,32.92
2019-03-23T14:07:47.184Z,33.62
2019-03-23T14:10:18.909Z,34.01
2019-03-23T14:12:51.580Z,34.57
2019-03-23T14:15:23.893Z,32.81
2019-03-23T14:17:55.400Z,32.03
2019-03-23T14:20:26.815Z,32.59
2019-03-23T14:23:02.675Z,32.86
2019-03-23T14:25:31.377Z,34.26
2019-03-23T14:28:03.763Z,33.04
2019-03-23T14:30:35.405Z,30.79
2019-03-23T14:33:06.884Z,33.81
2019-03-23T14:35:38.201Z,32.14
2019-03-23T14:38:09.582Z,33.43
2019-03-23T14:40:41.434Z,31.23
2019-03-23T14:43:14.768Z,32.48
2019-03-23T14:45:46.094Z,31.81
2019-03-23T14:48:19.817Z,32.66
2019-03-23T14:50:51.142Z,32.43
2019-03-23T14:53:24.573Z,33.33
2019-03-23T14:55:56.296Z,31.93
2019-03-23T15:00:04.362Z,33.42
2019-03-23T15:02:24.096Z,32.25
2019-03-23T15:04:55.658Z,32.02
2019-03-23T15:07:27.310Z,32.02
2019-03-23T15:10:00.411Z,31.79
2019-03-23T15:12:37.540Z,31.28
2019-03-23T15:15:09.744Z,33.23
2019-03-23T15:17:48.734Z,33.26
2019-03-23T15:20:16.359Z,33.77
2019-03-23T15:22:47.853Z,33.43
2019-03-23T15:25:19.713Z,34.40
2019-03-23T15:27:51.046Z,33.28
2019-03-23T15:30:22.875Z,33.69
2019-03-23T15:32:55.270Z,34.09
2019-03-23T15:35:26.663Z,34.15
2019-03-23T15:37:58.917Z,34.03
2019-03-23T15:40:31.658Z,34.69
2019-03-23T15:43:03.056Z,35.03
2019-03-23T15:45:36.387Z,35.43
2019-03-23T15:48:07.758Z,34.55
2019-03-23T15:50:39.204Z,34.53
2019-03-23T15:53:10.566Z,35.66
2019-03-23T15:55:42.023Z,35.26
2019-03-23T15:58:13.539Z,35.12
2019-03-23T16:00:48.244Z,35.00
2019-03-23T16:03:19.699Z,34.53
2019-03-23T16:05:51.143Z,35.39
2019-03-23T16:08:24.013Z,35.99
2019-03-23T16:10:55.707Z,36.22
2019-03-23T16:13:27.207Z,38.36
2019-03-23T16:15:58.595Z,39.25
2019-03-23T16:18:30.199Z,40.87
2019-03-23T16:21:01.656Z,41.09
2019-03-23T16:23:33.119Z,41.54
2019-03-23T16:26:04.689Z,41.49
2019-03-23T16:28:36.065Z,41.96
2019-03-23T16:31:07.481Z,42.84
2019-03-23T16:33:39.213Z,43.28
2019-03-23T16:36:12.455Z,43.61
2019-03-23T16:38:45.430Z,43.82
2019-03-23T16:41:16.725Z,44.77
2019-03-23T16:43:49.636Z,45.06
2019-03-23T16:46:21.083Z,44.96
2019-03-23T16:48:52.409Z,44.57
2019-03-23T16:51:24.110Z,45.17
2019-03-23T16:53:55.653Z,46.18
2019-03-23T16:56:28.542Z,46.43
2019-03-23T16:58:59.977Z,46.62
2019-03-23T17:01:31.398Z,47.44
2019-03-23T17:04:02.691Z,47.81
2019-03-23T17:06:34.816Z,48.44
2019-03-23T17:09:06.995Z,49.43
2019-03-23T17:11:38.610Z,49.94
2019-03-23T17:14:09.931Z,50.21
2019-03-23T17:16:42.951Z,50.56
2019-03-23T17:19:15.854Z,51.33
2019-03-23T17:21:47.291Z,51.25
2019-03-23T17:24:18.766Z,52.01
2019-03-23T17:26:50.791Z,52.07
2019-03-23T17:29:25.618Z,52.62
2019-03-23T17:31:57.221Z,53.18
2019-03-23T17:34:30.550Z,53.51
2019-03-23T17:37:03.174Z,53.81
2019-03-23T17:39:36.606Z,54.20
2019-03-23T17:42:08.282Z,54.52
2019-03-23T17:44:42.165Z,54.62
2019-03-23T17:47:13.776Z,55.09
2019-03-23T17:49:47.202Z,55.13
2019-03-23T17:52:18.661Z,54.97
2019-03-23T17:54:49.982Z,55.35
2019-03-23T17:57:23.069Z,55.67
2019-03-23T17:59:54.512Z,55.80
2019-03-23T18:02:38.318Z,56.26
2019-03-23T18:05:12.421Z,56.54
2019-03-23T18:07:44.093Z,56.68
2019-03-23T18:10:15.783Z,56.98
2019-03-23T18:12:47.319Z,57.57
2019-03-23T18:15:18.790Z,57.49
2019-03-23T18:17:51.259Z,57.86
2019-03-23T18:20:22.903Z,58.17
2019-03-23T18:22:54.297Z,57.99
2019-03-23T18:25:25.747Z,57.62
2019-03-23T18:27:57.117Z,57.78
2019-03-23T18:30:43.414Z,57.71
2019-03-23T18:33:14.867Z,57.92
2019-03-23T18:35:46.206Z,57.81
2019-03-23T18:38:17.830Z,58.04
2019-03-23T18:40:49.989Z,58.41
2019-03-23T18:43:27.353Z,58.19
2019-03-23T18:45:54.532Z,57.99
2019-03-23T18:48:25.866Z,58.11
2019-03-23T18:50:57.326Z,58.75
2019-03-23T18:53:28.709Z,59.22
2019-03-23T18:56:00.490Z,59.31
2019-03-23T18:58:32.091Z,59.72
2019-03-23T19:01:03.686Z,59.91
2019-03-23T19:03:35.149Z,60.21
2019-03-23T19:06:06.622Z,60.55
2019-03-23T19:08:38.151Z,60.69
2019-03-23T19:11:15.025Z,60.93
2019-03-23T19:13:46.704Z,60.99
2019-03-23T19:16:18.946Z,61.33
2019-03-23T19:18:50.430Z,61.52
2019-03-23T19:21:21.678Z,61.66
2019-03-23T19:23:53.321Z,61.67
2019-03-23T19:26:25.036Z,61.98
2019-03-23T19:28:56.594Z,61.88
2019-03-23T19:31:28.052Z,62.27
2019-03-23T19:33:59.345Z,62.04
2019-03-23T19:36:30.658Z,62.11
2019-03-23T19:39:07.460Z,62.29
2019-03-23T19:41:38.934Z,62.45
2019-03-23T19:44:10.380Z,62.73
2019-03-23T19:46:41.684Z,62.94
2019-03-23T19:49:14.780Z,63.08
2019-03-23T19:51:46.014Z,63.29
2019-03-23T19:54:17.424Z,63.42
2019-03-23T19:56:48.771Z,63.54
2019-03-23T19:59:21.709Z,63.75
2019-03-23T20:01:52.958Z,63.83
2019-03-23T20:04:24.485Z,64.04
2019-03-23T20:06:55.790Z,64.06
2019-03-23T20:09:27.198Z,63.94
2019-03-23T20:11:58.534Z,64.17
2019-03-23T20:14:29.953Z,64.18
2019-03-23T20:17:01.395Z,64.22
2019-03-23T20:19:33.296Z,64.35
2019-03-23T20:22:04.707Z,64.33
2019-03-23T20:24:37.134Z,64.43
2019-03-23T20:27:08.458Z,64.53
2019-03-23T20:29:39.894Z,64.74
2019-03-23T20:32:11.306Z,64.98
2019-03-23T20:34:42.683Z,65.18
2019-03-23T20:37:14.275Z,65.14
2019-03-23T20:39:47.631Z,65.23
2019-03-23T20:42:19.851Z,65.43
2019-03-23T20:44:51.143Z,65.45
2019-03-23T20:47:22.898Z,65.69
2019-03-23T20:49:54.516Z,66.05
2019-03-23T20:52:25.974Z,65.89
2019-03-23T20:54:57.530Z,66.00
2019-03-23T20:57:37.710Z,66.12
2019-03-23T21:00:09.563Z,66.32
2019-03-23T21:02:40.872Z,66.39
2019-03-23T21:05:12.677Z,66.32
2019-03-23T21:07:44.272Z,66.47
2019-03-23T21:10:15.839Z,66.46
2019-03-23T21:12:48.570Z,66.65
2019-03-23T21:15:21.481Z,66.69
2019-03-23T21:17:52.966Z,66.52
2019-03-23T21:20:25.978Z,66.42
2019-03-23T21:22:57.234Z,66.65
2019-03-23T21:25:28.666Z,66.50
2019-03-23T21:27:59.957Z,66.64
2019-03-23T21:30:31.339Z,66.71
2019-03-23T21:33:02.677Z,66.84
2019-03-23T21:35:33.980Z,66.95
2019-03-23T21:38:05.483Z,66.91
2019-03-23T21:40:37.013Z,67.11
2019-03-23T21:43:08.478Z,67.03
2019-03-23T21:45:39.839Z,67.15
2019-03-23T21:48:11.078Z,67.26
2019-03-23T21:50:47.476Z,67.35
2019-03-23T21:53:15.331Z,67.51
2019-03-23T21:55:46.751Z,67.62
2019-03-23T21:58:18.059Z,67.79
2019-03-23T22:00:49.443Z,67.79
2019-03-23T22:03:20.681Z,67.98
2019-03-23T22:05:52.058Z,68.11
2019-03-23T22:08:23.435Z,68.15
2019-03-23T22:10:54.796Z,68.39
2019-03-23T22:13:26.079Z,68.47
2019-03-23T22:15:57.465Z,68.46
2019-03-23T22:18:28.713Z,68.52
2019-03-23T22:21:00.087Z,68.72
2019-03-23T22:23:32.493Z,68.73
2019-03-23T22:26:03.774Z,69.02
2019-03-23T22:28:36.098Z,69.12
2019-03-23T22:31:07.563Z,68.99
2019-03-23T22:33:38.851Z,69.07
2019-03-23T22:36:10.224Z,69.19
2019-03-23T22:38:41.966Z,69.17
2019-03-23T22:41:13.331Z,69.25
2019-03-23T22:43:44.755Z,69.37
2019-03-23T22:46:16.034Z,69.61
2019-03-23T22:48:47.501Z,69.51
2019-03-23T22:51:19.022Z,69.70
2019-03-23T22:53:55.195Z,69.57
2019-03-23T22:56:25.981Z,69.53
2019-03-23T22:58:57.223Z,69.57
2019-03-23T23:01:28.590Z,69.46
2019-03-23T23:04:00.098Z,69.50
2019-03-23T23:06:31.519Z,69.42
2019-03-23T23:09:02.831Z,69.52
2019-03-23T23:11:35.206Z,69.55
2019-03-23T23:14:06.652Z,69.57
2019-03-23T23:16:38.012Z,69.57
2019-03-23T23:19:09.251Z,69.57
2019-03-23T23:21:40.625Z,69.61
2019-03-23T23:24:11.866Z,69.69
2019-03-23T23:26:43.226Z,69.78
2019-03-23T23:29:14.537Z,69.98
2019-03-23T23:31:45.901Z,70.05
2019-03-23T23:34:17.212Z,70.19
2019-03-23T23:36:48.618Z,70.30
2019-03-23T23:39:20.924Z,70.43
2019-03-23T23:41:52.276Z,70.48
2019-03-23T23:44:23.585Z,70.57
2019-03-23T23:46:54.968Z,70.60
2019-03-23T23:49:26.324Z,70.65
2019-03-23T23:51:57.634Z,70.83
2019-03-23T23:54:28.928Z,70.85
2019-03-23T23:57:00.351Z,71.01
2019-03-23T23:59:31.753Z,71.06
